sensor_id;sensor_type;location;lat;lon;timestamp;P1;durP1;ratioP1;P2;durP2;ratioP2
11427;SDS011;5770;44.504;11.346;2023-07-31T00:00:19;5.95;;;3.30;;
11427;SDS011;5770;44.504;11.346;2023-07-31T00:02:46;6.75;;;3.42;;
11427;SDS011;5770;44.504;11.346;2023-07-31T00:05:13;5.78;;;3.55;;
11427;SDS011;5770;44.504;11.346;2023-07-31T00:07:40;9.00;;;3.53;;
11427;SDS011;5770;44.504;11.346;2023-07-31T00:10:08;6.13;;;3.55;;
11427;SDS011;5770;44.504;11.346;2023-07-31T00:12:37;16.60;;;9.40;;
11427;SDS011;5770;44.504;11.346;2023-07-31T00:15:05;13.75;;;9.15;;
11427;SDS011;5770;44.504;11.346;2023-07-31T00:17:32;6.43;;;3.85;;
11427;SDS011;5770;44.504;11.346;2023-07-31T00:19:59;4.05;;;3.25;;
11427;SDS011;5770;44.504;11.346;2023-07-31T00:22:27;6.90;;;3.85;;
11427;SDS011;5770;44.504;11.346;2023-07-31T00:24:54;6.97;;;3.65;;
11427;SDS011;5770;44.504;11.346;2023-07-31T00:27:23;6.75;;;3.90;;
11427;SDS011;5770;44.504;11.346;2023-07-31T00:29:50;4.97;;;3.70;;
11427;SDS011;5770;44.504;11.346;2023-07-31T00:32:17;6.32;;;4.03;;
11427;SDS011;5770;44.504;11.346;2023-07-31T00:34:44;13.48;;;4.13;;
11427;SDS011;5770;44.504;11.346;2023-07-31T00:37:10;7.95;;;4.03;;
11427;SDS011;5770;44.504;11.346;2023-07-31T00:39:38;6.25;;;3.65;;
11427;SDS011;5770;44.504;11.346;2023-07-31T00:42:05;8.45;;;3.92;;
11427;SDS011;5770;44.504;11.346;2023-07-31T00:44:33;4.40;;;3.38;;
11427;SDS011;5770;44.504;11.346;2023-07-31T00:47:00;10.13;;;3.90;;
11427;SDS011;5770;44.504;11.346;2023-07-31T00:49:28;5.57;;;3.20;;
11427;SDS011;5770;44.504;11.346;2023-07-31T00:51:55;5.53;;;3.42;;
11427;SDS011;5770;44.504;11.346;2023-07-31T00:54:23;7.38;;;3.45;;
11427;SDS011;5770;44.504;11.346;2023-07-31T00:56:50;4.85;;;3.00;;
11427;SDS011;5770;44.504;11.346;2023-07-31T00:59:18;4.97;;;3.40;;
11427;SDS011;5770;44.504;11.346;2023-07-31T01:01:46;5.70;;;3.40;;
11427;SDS011;5770;44.504;11.346;2023-07-31T01:04:13;4.43;;;3.40;;
11427;SDS011;5770;44.504;11.346;2023-07-31T01:06:43;5.43;;;3.72;;
11427;SDS011;5770;44.504;11.346;2023-07-31T01:09:16;7.53;;;3.70;;
11427;SDS011;5770;44.504;11.346;2023-07-31T01:11:48;7.20;;;3.45;;
11427;SDS011;5770;44.504;11.346;2023-07-31T01:14:18;7.03;;;3.38;;
11427;SDS011;5770;44.504;11.346;2023-07-31T01:16:46;5.45;;;3.80;;
11427;SDS011;5770;44.504;11.346;2023-07-31T01:19:14;4.88;;;3.40;;
11427;SDS011;5770;44.504;11.346;2023-07-31T01:21:51;5.95;;;3.60;;
11427;SDS011;5770;44.504;11.346;2023-07-31T01:24:33;6.70;;;3.53;;
11427;SDS011;5770;44.504;11.346;2023-07-31T01:27:09;5.70;;;3.30;;
11427;SDS011;5770;44.504;11.346;2023-07-31T01:29:38;5.70;;;3.30;;
11427;SDS011;5770;44.504;11.346;2023-07-31T01:32:09;4.85;;;3.30;;
11427;SDS011;5770;44.504;11.346;2023-07-31T01:34:37;7.10;;;3.53;;
11427;SDS011;5770;44.504;11.346;2023-07-31T01:37:05;7.10;;;3.53;;
11427;SDS011;5770;44.504;11.346;2023-07-31T01:39:32;11.10;;;3.67;;
11427;SDS011;5770;44.504;11.346;2023-07-31T01:41:59;8.75;;;3.53;;
11427;SDS011;5770;44.504;11.346;2023-07-31T01:44:27;7.00;;;3.28;;
11427;SDS011;5770;44.504;11.346;2023-07-31T01:46:55;7.78;;;3.60;;
11427;SDS011;5770;44.504;11.346;2023-07-31T01:49:22;6.68;;;3.63;;
11427;SDS011;5770;44.504;11.346;2023-07-31T01:51:49;7.70;;;3.78;;
11427;SDS011;5770;44.504;11.346;2023-07-31T01:54:17;6.95;;;3.22;;
11427;SDS011;5770;44.504;11.346;2023-07-31T01:56:44;4.65;;;3.40;;
11427;SDS011;5770;44.504;11.346;2023-07-31T01:59:11;5.85;;;3.50;;
11427;SDS011;5770;44.504;11.346;2023-07-31T02:01:39;6.30;;;3.85;;
11427;SDS011;5770;44.504;11.346;2023-07-31T02:04:07;4.47;;;3.10;;
11427;SDS011;5770;44.504;11.346;2023-07-31T02:06:33;7.18;;;3.72;;
11427;SDS011;5770;44.504;11.346;2023-07-31T02:09:00;6.80;;;3.50;;
11427;SDS011;5770;44.504;11.346;2023-07-31T02:11:28;4.55;;;3.33;;
11427;SDS011;5770;44.504;11.346;2023-07-31T02:13:55;7.00;;;3.60;;
11427;SDS011;5770;44.504;11.346;2023-07-31T02:16:23;9.50;;;3.97;;
11427;SDS011;5770;44.504;11.346;2023-07-31T02:18:51;8.45;;;3.50;;
11427;SDS011;5770;44.504;11.346;2023-07-31T02:21:18;3.28;;;2.88;;
11427;SDS011;5770;44.504;11.346;2023-07-31T02:23:45;6.03;;;3.67;;
11427;SDS011;5770;44.504;11.346;2023-07-31T02:26:12;5.00;;;3.35;;
11427;SDS011;5770;44.504;11.346;2023-07-31T02:28:39;6.30;;;4.30;;
11427;SDS011;5770;44.504;11.346;2023-07-31T02:31:09;4.03;;;3.45;;
11427;SDS011;5770;44.504;11.346;2023-07-31T02:33:36;7.78;;;4.05;;
11427;SDS011;5770;44.504;11.346;2023-07-31T02:36:04;4.25;;;3.25;;
11427;SDS011;5770;44.504;11.346;2023-07-31T02:38:31;3.95;;;3.42;;
11427;SDS011;5770;44.504;11.346;2023-07-31T02:40:59;3.65;;;3.28;;
11427;SDS011;5770;44.504;11.346;2023-07-31T02:43:26;6.60;;;3.83;;
11427;SDS011;5770;44.504;11.346;2023-07-31T02:45:53;6.53;;;3.53;;
11427;SDS011;5770;44.504;11.346;2023-07-31T02:48:20;5.18;;;3.80;;
11427;SDS011;5770;44.504;11.346;2023-07-31T02:50:47;6.18;;;3.20;;
11427;SDS011;5770;44.504;11.346;2023-07-31T02:53:16;4.65;;;3.35;;
11427;SDS011;5770;44.504;11.346;2023-07-31T02:55:43;5.53;;;3.55;;
11427;SDS011;5770;44.504;11.346;2023-07-31T02:58:10;6.15;;;3.40;;
11427;SDS011;5770;44.504;11.346;2023-07-31T03:00:41;5.60;;;3.25;;
11427;SDS011;5770;44.504;11.346;2023-07-31T03:03:08;5.70;;;3.53;;
11427;SDS011;5770;44.504;11.346;2023-07-31T03:05:35;4.82;;;3.72;;
11427;SDS011;5770;44.504;11.346;2023-07-31T03:08:03;12.50;;;3.97;;
11427;SDS011;5770;44.504;11.346;2023-07-31T03:10:31;5.88;;;3.58;;
11427;SDS011;5770;44.504;11.346;2023-07-31T03:12:58;5.05;;;3.90;;
11427;SDS011;5770;44.504;11.346;2023-07-31T03:15:25;4.93;;;3.45;;
11427;SDS011;5770;44.504;11.346;2023-07-31T03:17:52;7.57;;;3.85;;
11427;SDS011;5770;44.504;11.346;2023-07-31T03:20:20;6.70;;;3.53;;
11427;SDS011;5770;44.504;11.346;2023-07-31T03:22:47;4.97;;;3.33;;
11427;SDS011;5770;44.504;11.346;2023-07-31T03:25:14;6.18;;;3.35;;
11427;SDS011;5770;44.504;11.346;2023-07-31T03:27:42;6.75;;;3.88;;
11427;SDS011;5770;44.504;11.346;2023-07-31T03:30:10;6.75;;;3.90;;
11427;SDS011;5770;44.504;11.346;2023-07-31T03:32:37;5.78;;;3.92;;
11427;SDS011;5770;44.504;11.346;2023-07-31T03:35:04;6.00;;;3.78;;
11427;SDS011;5770;44.504;11.346;2023-07-31T03:37:32;6.93;;;3.80;;
11427;SDS011;5770;44.504;11.346;2023-07-31T03:39:59;7.63;;;3.83;;
11427;SDS011;5770;44.504;11.346;2023-07-31T03:42:26;7.95;;;3.65;;
11427;SDS011;5770;44.504;11.346;2023-07-31T03:44:55;4.85;;;3.38;;
11427;SDS011;5770;44.504;11.346;2023-07-31T03:47:22;6.05;;;4.18;;
11427;SDS011;5770;44.504;11.346;2023-07-31T03:49:49;4.60;;;3.53;;
11427;SDS011;5770;44.504;11.346;2023-07-31T03:52:16;8.10;;;3.72;;
11427;SDS011;5770;44.504;11.346;2023-07-31T03:54:43;5.93;;;3.83;;
11427;SDS011;5770;44.504;11.346;2023-07-31T03:57:11;5.47;;;3.47;;
11427;SDS011;5770;44.504;11.346;2023-07-31T03:59:38;7.88;;;3.75;;
11427;SDS011;5770;44.504;11.346;2023-07-31T04:02:06;5.25;;;3.42;;
11427;SDS011;5770;44.504;11.346;2023-07-31T04:04:33;5.75;;;3.88;;
11427;SDS011;5770;44.504;11.346;2023-07-31T04:07:00;5.82;;;3.90;;
11427;SDS011;5770;44.504;11.346;2023-07-31T04:09:27;12.18;;;4.18;;
11427;SDS011;5770;44.504;11.346;2023-07-31T04:11:55;6.00;;;3.95;;
11427;SDS011;5770;44.504;11.346;2023-07-31T04:14:22;7.45;;;3.78;;
11427;SDS011;5770;44.504;11.346;2023-07-31T04:16:50;7.32;;;4.20;;
11427;SDS011;5770;44.504;11.346;2023-07-31T04:19:18;9.35;;;4.20;;
11427;SDS011;5770;44.504;11.346;2023-07-31T04:21:46;6.72;;;3.97;;
11427;SDS011;5770;44.504;11.346;2023-07-31T04:24:13;5.90;;;3.80;;
11427;SDS011;5770;44.504;11.346;2023-07-31T04:26:40;4.40;;;3.47;;
11427;SDS011;5770;44.504;11.346;2023-07-31T04:29:07;6.30;;;3.83;;
11427;SDS011;5770;44.504;11.346;2023-07-31T04:31:34;5.50;;;4.03;;
11427;SDS011;5770;44.504;11.346;2023-07-31T04:34:01;5.18;;;4.10;;
11427;SDS011;5770;44.504;11.346;2023-07-31T04:36:30;7.00;;;3.80;;
11427;SDS011;5770;44.504;11.346;2023-07-31T04:38:57;6.63;;;3.83;;
11427;SDS011;5770;44.504;11.346;2023-07-31T04:41:24;7.22;;;3.90;;
11427;SDS011;5770;44.504;11.346;2023-07-31T04:43:51;7.75;;;4.18;;
11427;SDS011;5770;44.504;11.346;2023-07-31T04:46:18;7.75;;;3.88;;
11427;SDS011;5770;44.504;11.346;2023-07-31T04:48:45;5.53;;;4.07;;
11427;SDS011;5770;44.504;11.346;2023-07-31T04:51:12;7.88;;;4.32;;
11427;SDS011;5770;44.504;11.346;2023-07-31T04:53:41;6.95;;;4.40;;
11427;SDS011;5770;44.504;11.346;2023-07-31T04:56:08;6.43;;;4.63;;
11427;SDS011;5770;44.504;11.346;2023-07-31T04:58:35;5.20;;;4.47;;
11427;SDS011;5770;44.504;11.346;2023-07-31T05:01:02;7.32;;;4.55;;
11427;SDS011;5770;44.504;11.346;2023-07-31T05:03:30;7.72;;;4.65;;
11427;SDS011;5770;44.504;11.346;2023-07-31T05:05:57;22.77;;;7.10;;
11427;SDS011;5770;44.504;11.346;2023-07-31T05:08:24;6.65;;;4.57;;
11427;SDS011;5770;44.504;11.346;2023-07-31T05:10:52;7.55;;;4.18;;
11427;SDS011;5770;44.504;11.346;2023-07-31T05:13:20;7.93;;;4.10;;
11427;SDS011;5770;44.504;11.346;2023-07-31T05:15:47;6.88;;;3.50;;
11427;SDS011;5770;44.504;11.346;2023-07-31T05:18:14;6.53;;;3.90;;
11427;SDS011;5770;44.504;11.346;2023-07-31T05:20:41;8.15;;;4.03;;
11427;SDS011;5770;44.504;11.346;2023-07-31T05:23:09;7.03;;;4.18;;
11427;SDS011;5770;44.504;11.346;2023-07-31T05:25:36;7.35;;;3.85;;
11427;SDS011;5770;44.504;11.346;2023-07-31T05:28:04;10.25;;;4.10;;
11427;SDS011;5770;44.504;11.346;2023-07-31T05:30:32;6.40;;;4.45;;
11427;SDS011;5770;44.504;11.346;2023-07-31T05:32:59;5.93;;;3.85;;
11427;SDS011;5770;44.504;11.346;2023-07-31T05:35:26;6.85;;;3.58;;
11427;SDS011;5770;44.504;11.346;2023-07-31T05:37:53;6.05;;;3.85;;
11427;SDS011;5770;44.504;11.346;2023-07-31T05:40:20;9.20;;;4.28;;
11427;SDS011;5770;44.504;11.346;2023-07-31T05:42:47;5.60;;;3.63;;
11427;SDS011;5770;44.504;11.346;2023-07-31T05:45:16;5.60;;;3.28;;
11427;SDS011;5770;44.504;11.346;2023-07-31T05:47:43;5.05;;;3.47;;
11427;SDS011;5770;44.504;11.346;2023-07-31T05:50:10;4.25;;;3.47;;
11427;SDS011;5770;44.504;11.346;2023-07-31T05:52:39;6.60;;;3.88;;
11427;SDS011;5770;44.504;11.346;2023-07-31T05:55:07;6.07;;;3.78;;
11427;SDS011;5770;44.504;11.346;2023-07-31T05:57:35;6.20;;;3.65;;
11427;SDS011;5770;44.504;11.346;2023-07-31T06:00:02;5.72;;;3.60;;
11427;SDS011;5770;44.504;11.346;2023-07-31T06:02:32;5.93;;;3.67;;
11427;SDS011;5770;44.504;11.346;2023-07-31T06:05:01;6.10;;;3.78;;
11427;SDS011;5770;44.504;11.346;2023-07-31T06:07:29;4.72;;;3.50;;
11427;SDS011;5770;44.504;11.346;2023-07-31T06:09:56;6.80;;;3.30;;
11427;SDS011;5770;44.504;11.346;2023-07-31T06:12:28;7.90;;;3.40;;
11427;SDS011;5770;44.504;11.346;2023-07-31T06:14:55;4.90;;;3.60;;
11427;SDS011;5770;44.504;11.346;2023-07-31T06:17:25;3.95;;;3.17;;
11427;SDS011;5770;44.504;11.346;2023-07-31T06:19:54;4.43;;;3.35;;
11427;SDS011;5770;44.504;11.346;2023-07-31T06:22:21;5.07;;;2.90;;
11427;SDS011;5770;44.504;11.346;2023-07-31T06:24:48;4.70;;;2.53;;
11427;SDS011;5770;44.504;11.346;2023-07-31T06:27:15;5.50;;;2.30;;
11427;SDS011;5770;44.504;11.346;2023-07-31T06:29:42;3.38;;;2.42;;
11427;SDS011;5770;44.504;11.346;2023-07-31T06:32:09;5.45;;;2.75;;
11427;SDS011;5770;44.504;11.346;2023-07-31T06:34:36;7.60;;;2.67;;
11427;SDS011;5770;44.504;11.346;2023-07-31T06:37:05;4.63;;;2.47;;
11427;SDS011;5770;44.504;11.346;2023-07-31T06:39:32;2.42;;;2.22;;
11427;SDS011;5770;44.504;11.346;2023-07-31T06:42:00;5.35;;;2.40;;
11427;SDS011;5770;44.504;11.346;2023-07-31T06:44:26;3.38;;;2.30;;
11427;SDS011;5770;44.504;11.346;2023-07-31T06:46:54;2.70;;;2.25;;
11427;SDS011;5770;44.504;11.346;2023-07-31T06:49:21;4.18;;;2.00;;
11427;SDS011;5770;44.504;11.346;2023-07-31T06:51:48;2.90;;;2.38;;
11427;SDS011;5770;44.504;11.346;2023-07-31T06:54:16;3.00;;;2.10;;
11427;SDS011;5770;44.504;11.346;2023-07-31T06:56:43;2.38;;;1.90;;
11427;SDS011;5770;44.504;11.346;2023-07-31T06:59:10;5.40;;;3.13;;
11427;SDS011;5770;44.504;11.346;2023-07-31T07:01:37;3.47;;;2.25;;
11427;SDS011;5770;44.504;11.346;2023-07-31T07:04:04;3.88;;;2.30;;
11427;SDS011;5770;44.504;11.346;2023-07-31T07:06:31;2.53;;;2.00;;
11427;SDS011;5770;44.504;11.346;2023-07-31T07:08:59;4.70;;;2.10;;
11427;SDS011;5770;44.504;11.346;2023-07-31T07:11:27;1.73;;;1.63;;
11427;SDS011;5770;44.504;11.346;2023-07-31T07:13:55;3.50;;;1.90;;
11427;SDS011;5770;44.504;11.346;2023-07-31T07:16:22;3.45;;;2.38;;
11427;SDS011;5770;44.504;11.346;2023-07-31T07:18:49;1.90;;;1.75;;
11427;SDS011;5770;44.504;11.346;2023-07-31T07:21:17;3.40;;;1.98;;
11427;SDS011;5770;44.504;11.346;2023-07-31T07:23:44;5.20;;;2.15;;
11427;SDS011;5770;44.504;11.346;2023-07-31T07:26:11;2.90;;;2.15;;
11427;SDS011;5770;44.504;11.346;2023-07-31T07:28:42;1.95;;;1.65;;
11427;SDS011;5770;44.504;11.346;2023-07-31T07:31:10;4.30;;;1.83;;
11427;SDS011;5770;44.504;11.346;2023-07-31T07:33:37;4.43;;;2.20;;
11427;SDS011;5770;44.504;11.346;2023-07-31T07:36:04;3.53;;;2.03;;
11427;SDS011;5770;44.504;11.346;2023-07-31T07:38:34;4.35;;;2.45;;
11427;SDS011;5770;44.504;11.346;2023-07-31T07:41:04;2.53;;;2.10;;
11427;SDS011;5770;44.504;11.346;2023-07-31T07:43:31;5.78;;;3.67;;
11427;SDS011;5770;44.504;11.346;2023-07-31T07:46:00;4.60;;;2.90;;
11427;SDS011;5770;44.504;11.346;2023-07-31T07:48:27;2.60;;;2.35;;
11427;SDS011;5770;44.504;11.346;2023-07-31T07:50:54;3.85;;;2.17;;
11427;SDS011;5770;44.504;11.346;2023-07-31T07:53:22;8.27;;;4.88;;
11427;SDS011;5770;44.504;11.346;2023-07-31T07:55:49;4.55;;;2.60;;
11427;SDS011;5770;44.504;11.346;2023-07-31T07:58:16;4.30;;;3.00;;
11427;SDS011;5770;44.504;11.346;2023-07-31T08:00:48;4.07;;;2.70;;
11427;SDS011;5770;44.504;11.346;2023-07-31T08:03:16;3.08;;;2.50;;
11427;SDS011;5770;44.504;11.346;2023-07-31T08:05:43;5.75;;;2.85;;
11427;SDS011;5770;44.504;11.346;2023-07-31T08:08:13;4.28;;;2.90;;
11427;SDS011;5770;44.504;11.346;2023-07-31T08:10:41;2.88;;;2.60;;
11427;SDS011;5770;44.504;11.346;2023-07-31T08:13:09;3.88;;;2.50;;
11427;SDS011;5770;44.504;11.346;2023-07-31T08:15:36;2.60;;;2.33;;
11427;SDS011;5770;44.504;11.346;2023-07-31T08:18:03;6.18;;;2.25;;
11427;SDS011;5770;44.504;11.346;2023-07-31T08:20:31;3.80;;;2.33;;
11427;SDS011;5770;44.504;11.346;2023-07-31T08:22:58;4.63;;;2.33;;
11427;SDS011;5770;44.504;11.346;2023-07-31T08:25:25;3.60;;;2.20;;
11427;SDS011;5770;44.504;11.346;2023-07-31T08:27:53;4.70;;;2.00;;
11427;SDS011;5770;44.504;11.346;2023-07-31T08:30:20;2.17;;;1.85;;
11427;SDS011;5770;44.504;11.346;2023-07-31T08:32:48;4.38;;;2.00;;
11427;SDS011;5770;44.504;11.346;2023-07-31T08:35:16;1.98;;;1.88;;
11427;SDS011;5770;44.504;11.346;2023-07-31T08:37:44;4.93;;;1.92;;
11427;SDS011;5770;44.504;11.346;2023-07-31T08:40:11;2.53;;;1.85;;
11427;SDS011;5770;44.504;11.346;2023-07-31T08:42:43;2.70;;;2.10;;
11427;SDS011;5770;44.504;11.346;2023-07-31T08:45:12;3.65;;;2.20;;
11427;SDS011;5770;44.504;11.346;2023-07-31T08:47:44;3.38;;;2.05;;
11427;SDS011;5770;44.504;11.346;2023-07-31T08:50:11;2.90;;;2.20;;
11427;SDS011;5770;44.504;11.346;2023-07-31T08:52:39;3.38;;;2.20;;
11427;SDS011;5770;44.504;11.346;2023-07-31T08:55:08;2.22;;;2.03;;
11427;SDS011;5770;44.504;11.346;2023-07-31T08:57:36;2.42;;;1.85;;
11427;SDS011;5770;44.504;11.346;2023-07-31T09:00:04;2.90;;;1.50;;
11427;SDS011;5770;44.504;11.346;2023-07-31T09:02:34;3.22;;;1.98;;
11427;SDS011;5770;44.504;11.346;2023-07-31T09:05:07;2.80;;;1.77;;
11427;SDS011;5770;44.504;11.346;2023-07-31T09:07:34;3.65;;;1.90;;
11427;SDS011;5770;44.504;11.346;2023-07-31T09:10:02;4.20;;;2.72;;
11427;SDS011;5770;44.504;11.346;2023-07-31T09:12:31;3.45;;;2.20;;
11427;SDS011;5770;44.504;11.346;2023-07-31T09:14:58;2.28;;;1.70;;
11427;SDS011;5770;44.504;11.346;2023-07-31T09:17:28;4.25;;;1.92;;
11427;SDS011;5770;44.504;11.346;2023-07-31T09:19:56;4.07;;;2.42;;
11427;SDS011;5770;44.504;11.346;2023-07-31T09:22:31;4.80;;;2.20;;
11427;SDS011;5770;44.504;11.346;2023-07-31T09:25:03;5.85;;;2.38;;
11427;SDS011;5770;44.504;11.346;2023-07-31T09:27:39;5.10;;;2.00;;
11427;SDS011;5770;44.504;11.346;2023-07-31T09:30:13;3.72;;;2.42;;
11427;SDS011;5770;44.504;11.346;2023-07-31T09:32:40;3.58;;;2.60;;
11427;SDS011;5770;44.504;11.346;2023-07-31T09:35:14;5.28;;;2.38;;
11427;SDS011;5770;44.504;11.346;2023-07-31T09:37:47;3.78;;;2.10;;
11427;SDS011;5770;44.504;11.346;2023-07-31T09:40:24;2.10;;;1.90;;
11427;SDS011;5770;44.504;11.346;2023-07-31T09:42:53;3.20;;;2.20;;
11427;SDS011;5770;44.504;11.346;2023-07-31T09:45:20;3.72;;;2.13;;
11427;SDS011;5770;44.504;11.346;2023-07-31T09:47:47;2.20;;;2.00;;
11427;SDS011;5770;44.504;11.346;2023-07-31T09:50:14;2.78;;;1.80;;
11427;SDS011;5770;44.504;11.346;2023-07-31T09:52:42;2.65;;;2.13;;
11427;SDS011;5770;44.504;11.346;2023-07-31T09:55:09;9.52;;;2.60;;
11427;SDS011;5770;44.504;11.346;2023-07-31T09:57:36;9.57;;;2.78;;
11427;SDS011;5770;44.504;11.346;2023-07-31T10:00:07;5.90;;;2.20;;
11427;SDS011;5770;44.504;11.346;2023-07-31T10:02:35;4.97;;;2.15;;
11427;SDS011;5770;44.504;11.346;2023-07-31T10:05:03;4.90;;;2.50;;
11427;SDS011;5770;44.504;11.346;2023-07-31T10:07:34;5.07;;;2.42;;
11427;SDS011;5770;44.504;11.346;2023-07-31T10:10:04;3.45;;;2.42;;
11427;SDS011;5770;44.504;11.346;2023-07-31T10:12:33;3.08;;;2.42;;
11427;SDS011;5770;44.504;11.346;2023-07-31T10:15:00;2.67;;;2.33;;
11427;SDS011;5770;44.504;11.346;2023-07-31T10:17:30;4.00;;;2.40;;
11427;SDS011;5770;44.504;11.346;2023-07-31T10:19:57;5.45;;;2.78;;
11427;SDS011;5770;44.504;11.346;2023-07-31T10:22:26;5.85;;;2.90;;
11427;SDS011;5770;44.504;11.346;2023-07-31T10:24:54;5.65;;;2.60;;
11427;SDS011;5770;44.504;11.346;2023-07-31T10:27:22;4.53;;;2.50;;
11427;SDS011;5770;44.504;11.346;2023-07-31T10:29:49;2.90;;;2.35;;
11427;SDS011;5770;44.504;11.346;2023-07-31T10:32:18;8.43;;;4.70;;
11427;SDS011;5770;44.504;11.346;2023-07-31T10:34:48;3.85;;;3.03;;
11427;SDS011;5770;44.504;11.346;2023-07-31T10:37:19;3.30;;;2.65;;
11427;SDS011;5770;44.504;11.346;2023-07-31T10:39:57;3.15;;;2.40;;
11427;SDS011;5770;44.504;11.346;2023-07-31T10:42:27;5.35;;;2.75;;
11427;SDS011;5770;44.504;11.346;2023-07-31T10:44:56;6.57;;;2.85;;
11427;SDS011;5770;44.504;11.346;2023-07-31T10:47:23;4.30;;;2.53;;
11427;SDS011;5770;44.504;11.346;2023-07-31T10:49:51;3.05;;;2.60;;
11427;SDS011;5770;44.504;11.346;2023-07-31T10:52:19;4.60;;;2.78;;
11427;SDS011;5770;44.504;11.346;2023-07-31T10:54:49;3.22;;;2.92;;
11427;SDS011;5770;44.504;11.346;2023-07-31T10:57:19;3.28;;;2.63;;
11427;SDS011;5770;44.504;11.346;2023-07-31T10:59:46;5.53;;;3.97;;
11427;SDS011;5770;44.504;11.346;2023-07-31T11:02:23;4.40;;;3.35;;
11427;SDS011;5770;44.504;11.346;2023-07-31T11:07:47;4.10;;;2.45;;
11427;SDS011;5770;44.504;11.346;2023-07-31T11:10:18;6.82;;;3.33;;
11427;SDS011;5770;44.504;11.346;2023-07-31T11:12:45;2.90;;;2.60;;
11427;SDS011;5770;44.504;11.346;2023-07-31T11:15:12;4.25;;;2.67;;
11427;SDS011;5770;44.504;11.346;2023-07-31T11:17:40;3.78;;;2.80;;
11427;SDS011;5770;44.504;11.346;2023-07-31T11:20:07;6.30;;;2.78;;
11427;SDS011;5770;44.504;11.346;2023-07-31T11:22:35;4.90;;;2.60;;
11427;SDS011;5770;44.504;11.346;2023-07-31T11:25:04;3.75;;;2.72;;
11427;SDS011;5770;44.504;11.346;2023-07-31T11:27:38;3.65;;;2.55;;
11427;SDS011;5770;44.504;11.346;2023-07-31T11:30:06;6.32;;;2.65;;
11427;SDS011;5770;44.504;11.346;2023-07-31T11:32:33;2.67;;;2.47;;
11427;SDS011;5770;44.504;11.346;2023-07-31T11:35:00;2.83;;;2.63;;
11427;SDS011;5770;44.504;11.346;2023-07-31T11:37:38;3.38;;;2.78;;
11427;SDS011;5770;44.504;11.346;2023-07-31T11:40:08;5.15;;;2.67;;
11427;SDS011;5770;44.504;11.346;2023-07-31T11:42:35;4.03;;;2.63;;
11427;SDS011;5770;44.504;11.346;2023-07-31T11:45:03;3.58;;;2.30;;
11427;SDS011;5770;44.504;11.346;2023-07-31T11:47:32;4.20;;;2.58;;
11427;SDS011;5770;44.504;11.346;2023-07-31T11:50:00;6.03;;;2.60;;
11427;SDS011;5770;44.504;11.346;2023-07-31T11:52:28;4.18;;;2.80;;
11427;SDS011;5770;44.504;11.346;2023-07-31T11:54:56;4.18;;;2.85;;
11427;SDS011;5770;44.504;11.346;2023-07-31T11:57:25;3.85;;;2.28;;
11427;SDS011;5770;44.504;11.346;2023-07-31T11:59:53;4.10;;;2.75;;
11427;SDS011;5770;44.504;11.346;2023-07-31T12:02:20;4.10;;;2.45;;
11427;SDS011;5770;44.504;11.346;2023-07-31T12:04:48;6.05;;;2.63;;
11427;SDS011;5770;44.504;11.346;2023-07-31T12:07:15;4.88;;;2.58;;
11427;SDS011;5770;44.504;11.346;2023-07-31T12:09:50;2.70;;;2.50;;
11427;SDS011;5770;44.504;11.346;2023-07-31T12:12:19;4.40;;;2.80;;
11427;SDS011;5770;44.504;11.346;2023-07-31T12:14:48;3.65;;;2.63;;
11427;SDS011;5770;44.504;11.346;2023-07-31T12:17:16;3.22;;;2.88;;
11427;SDS011;5770;44.504;11.346;2023-07-31T12:19:45;3.90;;;2.30;;
11427;SDS011;5770;44.504;11.346;2023-07-31T12:22:12;6.13;;;2.58;;
11427;SDS011;5770;44.504;11.346;2023-07-31T12:24:40;3.20;;;2.90;;
11427;SDS011;5770;44.504;11.346;2023-07-31T12:27:10;5.68;;;2.60;;
11427;SDS011;5770;44.504;11.346;2023-07-31T12:29:38;3.30;;;2.53;;
11427;SDS011;5770;44.504;11.346;2023-07-31T12:32:19;5.72;;;2.60;;
11427;SDS011;5770;44.504;11.346;2023-07-31T12:34:46;3.05;;;2.53;;
11427;SDS011;5770;44.504;11.346;2023-07-31T12:37:13;3.50;;;2.58;;
11427;SDS011;5770;44.504;11.346;2023-07-31T12:39:41;3.92;;;2.58;;
11427;SDS011;5770;44.504;11.346;2023-07-31T12:42:08;2.92;;;2.63;;
11427;SDS011;5770;44.504;11.346;2023-07-31T12:44:35;2.90;;;2.30;;
11427;SDS011;5770;44.504;11.346;2023-07-31T12:47:02;3.17;;;2.65;;
11427;SDS011;5770;44.504;11.346;2023-07-31T12:49:31;3.03;;;2.42;;
11427;SDS011;5770;44.504;11.346;2023-07-31T12:51:58;3.70;;;2.28;;
11427;SDS011;5770;44.504;11.346;2023-07-31T12:54:25;3.55;;;2.88;;
11427;SDS011;5770;44.504;11.346;2023-07-31T12:56:53;8.95;;;3.03;;
11427;SDS011;5770;44.504;11.346;2023-07-31T12:59:20;6.00;;;2.70;;
11427;SDS011;5770;44.504;11.346;2023-07-31T13:01:47;3.40;;;2.55;;
11427;SDS011;5770;44.504;11.346;2023-07-31T13:04:15;3.97;;;2.88;;
11427;SDS011;5770;44.504;11.346;2023-07-31T13:06:43;2.75;;;2.55;;
11427;SDS011;5770;44.504;11.346;2023-07-31T13:09:10;3.17;;;2.40;;
11427;SDS011;5770;44.504;11.346;2023-07-31T13:11:37;3.80;;;2.50;;
11427;SDS011;5770;44.504;11.346;2023-07-31T13:14:04;6.15;;;3.03;;
11427;SDS011;5770;44.504;11.346;2023-07-31T13:16:32;7.18;;;3.20;;
11427;SDS011;5770;44.504;11.346;2023-07-31T13:18:59;7.15;;;2.67;;
11427;SDS011;5770;44.504;11.346;2023-07-31T13:21:26;3.70;;;3.10;;
11427;SDS011;5770;44.504;11.346;2023-07-31T13:23:54;3.05;;;2.47;;
11427;SDS011;5770;44.504;11.346;2023-07-31T13:26:23;2.50;;;2.30;;
11427;SDS011;5770;44.504;11.346;2023-07-31T13:28:50;4.55;;;2.67;;
11427;SDS011;5770;44.504;11.346;2023-07-31T13:31:17;4.07;;;2.70;;
11427;SDS011;5770;44.504;11.346;2023-07-31T13:33:44;2.88;;;2.25;;
11427;SDS011;5770;44.504;11.346;2023-07-31T13:36:11;5.07;;;2.60;;
11427;SDS011;5770;44.504;11.346;2023-07-31T13:38:39;2.40;;;2.20;;
11427;SDS011;5770;44.504;11.346;2023-07-31T13:41:07;6.57;;;3.55;;
11427;SDS011;5770;44.504;11.346;2023-07-31T13:43:34;6.43;;;2.88;;
11427;SDS011;5770;44.504;11.346;2023-07-31T13:46:01;3.95;;;2.78;;
11427;SDS011;5770;44.504;11.346;2023-07-31T13:48:31;3.05;;;2.53;;
11427;SDS011;5770;44.504;11.346;2023-07-31T13:50:59;5.40;;;2.90;;
11427;SDS011;5770;44.504;11.346;2023-07-31T13:53:26;2.83;;;2.55;;
11427;SDS011;5770;44.504;11.346;2023-07-31T13:55:53;4.00;;;2.58;;
11427;SDS011;5770;44.504;11.346;2023-07-31T13:58:22;4.90;;;3.08;;
11427;SDS011;5770;44.504;11.346;2023-07-31T14:00:49;4.63;;;2.40;;
11427;SDS011;5770;44.504;11.346;2023-07-31T14:03:16;3.13;;;2.47;;
11427;SDS011;5770;44.504;11.346;2023-07-31T14:05:43;4.28;;;2.78;;
11427;SDS011;5770;44.504;11.346;2023-07-31T14:08:10;3.53;;;2.60;;
11427;SDS011;5770;44.504;11.346;2023-07-31T14:10:37;4.43;;;2.75;;
11427;SDS011;5770;44.504;11.346;2023-07-31T14:13:04;3.47;;;2.60;;
11427;SDS011;5770;44.504;11.346;2023-07-31T14:15:33;4.18;;;3.40;;
11427;SDS011;5770;44.504;11.346;2023-07-31T14:18:01;3.95;;;3.00;;
11427;SDS011;5770;44.504;11.346;2023-07-31T14:20:28;5.53;;;3.28;;
11427;SDS011;5770;44.504;11.346;2023-07-31T14:22:56;4.93;;;3.55;;
11427;SDS011;5770;44.504;11.346;2023-07-31T14:25:24;4.20;;;3.15;;
11427;SDS011;5770;44.504;11.346;2023-07-31T14:27:51;5.20;;;2.67;;
11427;SDS011;5770;44.504;11.346;2023-07-31T14:30:18;4.45;;;3.20;;
11427;SDS011;5770;44.504;11.346;2023-07-31T14:32:47;5.28;;;3.15;;
11427;SDS011;5770;44.504;11.346;2023-07-31T14:35:14;10.48;;;3.10;;
11427;SDS011;5770;44.504;11.346;2023-07-31T14:37:42;4.70;;;2.63;;
11427;SDS011;5770;44.504;11.346;2023-07-31T14:40:11;9.02;;;2.97;;
11427;SDS011;5770;44.504;11.346;2023-07-31T14:42:39;7.13;;;3.38;;
11427;SDS011;5770;44.504;11.346;2023-07-31T14:45:06;3.03;;;2.72;;
11427;SDS011;5770;44.504;11.346;2023-07-31T14:47:35;3.17;;;2.88;;
11427;SDS011;5770;44.504;11.346;2023-07-31T14:50:04;3.08;;;2.70;;
11427;SDS011;5770;44.504;11.346;2023-07-31T14:52:31;3.90;;;2.70;;
11427;SDS011;5770;44.504;11.346;2023-07-31T14:54:58;9.23;;;2.90;;